Startpagina
METAR-TAF:

METAR-TAF

Vliegvelden :

Pisco, Peru

breedte: 13-45S, lengte: 076-17W, hoogte: 8 m

Actueel weer

Dit bericht is 37 minuten geleden gemaakt, om 19:00 UTC
Wind 7 kt uit het westen
Temperatuur 22°C
Vochtigheid 73%
Druk 1013 hPa
Zicht 10 km of meer
Geheel bewolkt op 5100 ft

METAR: SPSO 121900Z 27007KT 9999 OVC051 22/17 Q1013 RMK BIRD HAZARD RWY 22/04 PP000

Tijdstip: 14:37 (19:37 UTC)

Verwachting

Dit bericht is 2 uur en het 37 minuten geleden gemaakt, om 17:00 UTC
Verwachting geldig van 12 om 18 UTC tot 13 om 18 UTC
Wind 6 kt uit het westen
Zicht: 8000 m
Geheel bewolkt op 4500 ft
Van 12 om 2100 UTC
Wind 12 kt uit het zuidwesten
Zicht 10 km of meer
Gebroken wolken op 5000 ft
Van 13 om 0800 UTC
Wind 7 kt uit het zuidzuidwesten
Zicht: 5000 m
Geheel bewolkt op 2500 ft
nevel

TAF: SPSO 121700Z 1218/1318 27006KT 8000 OVC045 TX24/1219Z TN19/1311Z FM122100 23012KT 9999 BKN050 FM130800 21007KT 5000 BR OVC025

Waarnemingen en weersverwachtingen van meer dan 4000 vliegvelden (METAR en TAF).

De beschikbare stations zijn de gele en rode punten op de kaart.

Ga met uw muis naar het station om de naam te zien.

Klik dan om waarnemingen en weersverwachtingen te zien.

kaart wijzigen: klik op de groene knoppen met een zwart kruis om in te zoomen, op de groene knop met een streepje om uit te zoomen of op de groene pijlen voor aangrenzende kaarten.


METAR-TAF: